Time;durP1;ratioP1;P1;durP2;ratioP2;P2;SDS_P1;SDS_P2;PMS_P1;PMS_P2;Temp;Humidity;BMP_temperature;BMP_pressure;BME280_temperature;BME280_humidity;BME280_pressure;Samples;Min_cycle;Max_cycle;Signal;HPM_P1;HPM_P2
2024/02/17 00:00:48;;;;;;;;;;;;;;;;;;2210357;59;1251;-20
2024/02/17 00:03:24;;;;;;;;;;;;;;;;;;2212630;66;1578;-21
2024/02/17 00:05:55;;;;;;;;;;;;;;;;;;2207609;66;1928;-21
2024/02/17 00:08:26;;;;;;;;;;;;;;;;;;2208139;67;1426;-21
2024/02/17 00:10:57;;;;;;;;;;;;;;;;;;2213559;66;1595;-21
2024/02/17 00:13:29;;;;;;;;;;;;;;;;;;2213715;59;1269;-21
2024/02/17 00:15:59;;;;;;;;;;;;;;;;;;2211074;66;1299;-21
2024/02/17 00:18:35;;;;;;;;;;;;;;;;;;2212912;66;1209;-21
2024/02/17 00:21:06;;;;;;;;;;;;;;;;;;2210948;67;1289;-21
2024/02/17 00:23:36;;;;;;;;;;;;;;;;;;2213614;59;1606;-21
2024/02/17 00:26:07;;;;;;;;;;;;;;;;;;2214510;66;1964;-21
2024/02/17 00:28:38;;;;;;;;;;;;;;;;;;2213810;66;1910;-21
2024/02/17 00:31:09;;;;;;;;;;;;;;;;;;2213658;66;1734;-21
2024/02/17 00:33:39;;;;;;;;;;;;;;;;;;2209304;59;1857;-21
2024/02/17 00:36:10;;;;;;;;;;;;;;;;;;2213715;59;1408;-21
2024/02/17 00:38:41;;;;;;;;;;;;;;;;;;2212376;59;1518;-21
2024/02/17 00:41:13;;;;;;;;;;;;;;;;;;2214601;59;1468;-21
2024/02/17 00:43:43;;;;;;;;;;;;;;;;;;2213510;66;1420;-21
2024/02/17 00:46:14;;;;;;;;;;;;;;;;;;2209535;59;1943;-21
2024/02/17 00:48:45;;;;;;;;;;;;;;;;;;2208407;59;1462;-21
2024/02/17 00:51:15;;;;;;;;;;;;;;;;;;2210502;59;1745;-21
2024/02/17 00:53:46;;;;;;;;;;;;;;;;;;2211397;59;1483;-21
2024/02/17 00:56:21;;;;;;;;;;;;;;;;;;2213350;59;1458;-21
2024/02/17 00:58:51;;;;;;;;;;;;;;;;;;2210249;59;1163;-21
2024/02/17 01:01:22;;;;;;;;;;;;;;;;;;2214584;66;1228;-21
2024/02/17 01:03:52;;;;;;;;;;;;;;;;;;2215127;66;1202;-21
2024/02/17 01:06:26;;;;;;;;;;;;;;;;;;2213088;66;1929;-21
2024/02/17 01:08:56;;;;;;;;;;;;;;;;;;2214608;66;1278;-21
2024/02/17 01:11:29;;;;;;;;;;;;;;;;;;2213297;66;1243;-21
2024/02/17 01:14:00;;;;;;;;;;;;;;;;;;2213794;59;1161;-21
2024/02/17 01:16:30;;;;;;;;;;;;;;;;;;2213332;66;1215;-21
2024/02/17 01:19:01;;;;;;;;;;;;;;;;;;2214205;66;1244;-21
2024/02/17 01:21:33;;;;;;;;;;;;;;;;;;2213477;66;1594;-21
2024/02/17 01:24:04;;;;;;;;;;;;;;;;;;2212266;59;1307;-21
2024/02/17 01:26:35;;;;;;;;;;;;;;;;;;2212722;66;1904;-21
2024/02/17 01:29:05;;;;;;;;;;;;;;;;;;2212172;66;1668;-21
2024/02/17 01:31:36;;;;;;;;;;;;;;;;;;2214160;67;1118;-21
2024/02/17 01:34:06;;;;;;;;;;;;;;;;;;2214525;59;1419;-21
2024/02/17 01:36:39;;;;;;;;;;;;;;;;;;2214106;59;1488;-21
2024/02/17 01:39:10;;;;;;;;;;;;;;;;;;2213951;66;1565;-21
2024/02/17 01:41:44;;;;;;;;;;;;;;;;;;2214909;59;1352;-21
2024/02/17 01:44:16;;;;;;;;;;;;;;;;;;2212383;67;1259;-21
2024/02/17 01:46:50;;;;;;;;;;;;;;;;;;2212853;59;1943;-21
2024/02/17 01:49:20;;;;;;;;;;;;;;;;;;2213293;58;1309;-21
2024/02/17 01:51:51;;;;;;;;;;;;;;;;;;2212329;59;1557;-21
2024/02/17 01:54:25;;;;;;;;;;;;;;;;;;2213107;59;2095;-21
2024/02/17 01:56:57;;;;;;;;;;;;;;;;;;2213478;59;1497;-21
2024/02/17 01:59:30;;;;;;;;;;;;;;;;;;2210146;67;1256;-21
2024/02/17 02:02:04;;;;;;;;;;;;;;;;;;2214655;59;1781;-21
2024/02/17 02:04:34;;;;;;;;;;;;;;;;;;2213840;66;1364;-21
2024/02/17 02:07:06;;;;;;;;;;;;;;;;;;2214554;66;1941;-21
2024/02/17 02:09:37;;;;;;;;;;;;;;;;;;2209142;66;1318;-21
2024/02/17 02:12:08;;;;;;;;;;;;;;;;;;2213737;66;1331;-21
2024/02/17 02:14:38;;;;;;;;;;;;;;;;;;2214131;59;1495;-21
2024/02/17 02:17:09;;;;;;;;;;;;;;;;;;2210651;66;1271;-21
2024/02/17 02:20:00;;;;;;;;;;;;;;;;;;2212412;66;1670;-21
2024/02/17 02:22:30;;;;;;;;;;;;;;;;;;2213628;59;1474;-21
2024/02/17 02:25:25;;;;;;;;;;;;;;;;;;2212395;66;1995;-21
2024/02/17 02:27:56;;;;;;;;;;;;;;;;;;2210298;66;1245;-21
2024/02/17 02:30:27;;;;;;;;;;;;;;;;;;2210004;67;1440;-21
2024/02/17 02:33:02;;;;;;;;;;;;;;;;;;2214646;59;2085;-21
2024/02/17 02:35:32;;;;;;;;;;;;;;;;;;2212656;66;1169;-21
2024/02/17 02:38:03;;;;;;;;;;;;;;;;;;2214651;59;1688;-21
2024/02/17 02:40:33;;;;;;;;;;;;;;;;;;2210893;59;1583;-23
2024/02/17 02:43:05;;;;;;;;;;;;;;;;;;2211226;67;1394;-21
2024/02/17 02:45:37;;;;;;;;;;;;;;;;;;2212735;66;1933;-21
2024/02/17 02:48:07;;;;;;;;;;;;;;;;;;2210247;59;1439;-21
2024/02/17 02:50:37;;;;;;;;;;;;;;;;;;2212837;59;1660;-21
2024/02/17 02:53:08;;;;;;;;;;;;;;;;;;2209994;67;1817;-21
2024/02/17 02:55:41;;;;;;;;;;;;;;;;;;2213582;59;1537;-21
2024/02/17 02:58:12;;;;;;;;;;;;;;;;;;2213865;66;1196;-21
2024/02/17 03:00:42;;;;;;;;;;;;;;;;;;2210411;66;1618;-21
2024/02/17 03:03:16;;;;;;;;;;;;;;;;;;2210782;67;1485;-21
2024/02/17 03:05:52;;;;;;;;;;;;;;;;;;2213183;66;1985;-21
2024/02/17 03:08:24;;;;;;;;;;;;;;;;;;2213416;59;1384;-21
2024/02/17 03:10:54;;;;;;;;;;;;;;;;;;2208616;67;1711;-21
2024/02/17 03:13:35;;;;;;;;;;;;;;;;;;2212248;66;1439;-21
2024/02/17 03:16:07;;;;;;;;;;;;;;;;;;2211193;59;1359;-21
2024/02/17 03:18:38;;;;;;;;;;;;;;;;;;2209878;66;1251;-21
2024/02/17 03:21:09;;;;;;;;;;;;;;;;;;2213060;66;1287;-21
2024/02/17 03:23:39;;;;;;;;;;;;;;;;;;2209199;59;1413;-21
2024/02/17 03:26:11;;;;;;;;;;;;;;;;;;2213226;66;1921;-21
2024/02/17 03:28:41;;;;;;;;;;;;;;;;;;2211691;66;1289;-21
2024/02/17 03:31:12;;;;;;;;;;;;;;;;;;2209623;59;1243;-21
2024/02/17 03:33:43;;;;;;;;;;;;;;;;;;2213169;59;1515;-21
2024/02/17 03:36:13;;;;;;;;;;;;;;;;;;2209567;59;1413;-21
2024/02/17 03:38:44;;;;;;;;;;;;;;;;;;2212718;67;1243;-21
2024/02/17 03:41:20;;;;;;;;;;;;;;;;;;2213277;59;1377;-21
2024/02/17 03:43:51;;;;;;;;;;;;;;;;;;2207007;67;1273;-21
2024/02/17 03:46:23;;;;;;;;;;;;;;;;;;2209634;59;1987;-21
2024/02/17 03:48:53;;;;;;;;;;;;;;;;;;2212687;66;1681;-21
2024/02/17 03:51:24;;;;;;;;;;;;;;;;;;2207944;67;1865;-21
2024/02/17 03:53:55;;;;;;;;;;;;;;;;;;2212351;59;1942;-21
2024/02/17 03:56:26;;;;;;;;;;;;;;;;;;2213295;59;1413;-21
2024/02/17 03:58:58;;;;;;;;;;;;;;;;;;2211706;66;1361;-21
2024/02/17 04:01:33;;;;;;;;;;;;;;;;;;2212857;59;1188;-21
2024/02/17 04:04:04;;;;;;;;;;;;;;;;;;2212545;66;1261;-21
2024/02/17 04:06:34;;;;;;;;;;;;;;;;;;2211726;67;1955;-21
2024/02/17 04:09:06;;;;;;;;;;;;;;;;;;2212651;66;1230;-21
2024/02/17 04:11:38;;;;;;;;;;;;;;;;;;2212519;66;1519;-21
2024/02/17 04:14:08;;;;;;;;;;;;;;;;;;2212716;59;1425;-21
2024/02/17 04:16:39;;;;;;;;;;;;;;;;;;2213422;66;1751;-21
2024/02/17 04:19:09;;;;;;;;;;;;;;;;;;2213503;66;1393;-21
2024/02/17 04:21:39;;;;;;;;;;;;;;;;;;2211708;66;1144;-21
2024/02/17 04:24:10;;;;;;;;;;;;;;;;;;2210656;59;1226;-21
2024/02/17 04:26:41;;;;;;;;;;;;;;;;;;2211424;66;1931;-21
2024/02/17 04:29:16;;;;;;;;;;;;;;;;;;2209595;66;1167;-21
2024/02/17 04:31:47;;;;;;;;;;;;;;;;;;2212849;66;1442;-21
2024/02/17 04:34:18;;;;;;;;;;;;;;;;;;2209747;59;2017;-21
2024/02/17 04:36:49;;;;;;;;;;;;;;;;;;2213037;59;1362;-21
2024/02/17 04:39:20;;;;;;;;;;;;;;;;;;2213226;59;1287;-21
2024/02/17 04:41:53;;;;;;;;;;;;;;;;;;2213598;59;1348;-21
2024/02/17 04:44:25;;;;;;;;;;;;;;;;;;2210139;66;1129;-20
2024/02/17 04:46:55;;;;;;;;;;;;;;;;;;2212740;59;1927;-21
2024/02/17 04:49:27;;;;;;;;;;;;;;;;;;2212243;66;1159;-21
2024/02/17 04:51:59;;;;;;;;;;;;;;;;;;2211919;66;1249;-21
2024/02/17 04:54:29;;;;;;;;;;;;;;;;;;2213305;59;1473;-21
2024/02/17 04:57:00;;;;;;;;;;;;;;;;;;2212910;66;1520;-21
2024/02/17 04:59:31;;;;;;;;;;;;;;;;;;2210724;67;1288;-22
2024/02/17 05:02:01;;;;;;;;;;;;;;;;;;2212495;66;1244;-21
2024/02/17 05:04:32;;;;;;;;;;;;;;;;;;2213284;66;1239;-21
2024/02/17 05:07:03;;;;;;;;;;;;;;;;;;2212992;66;1992;-21
2024/02/17 05:09:34;;;;;;;;;;;;;;;;;;2212186;67;1695;-21
2024/02/17 05:12:04;;;;;;;;;;;;;;;;;;2213345;66;1174;-21
2024/02/17 05:14:36;;;;;;;;;;;;;;;;;;2207509;59;1412;-20
2024/02/17 05:17:07;;;;;;;;;;;;;;;;;;2214158;66;1238;-20
2024/02/17 05:19:37;;;;;;;;;;;;;;;;;;2213549;53;2158;-24
2024/02/17 05:22:08;;;;;;;;;;;;;;;;;;2207290;58;1599;-24
2024/02/17 05:24:38;;;;;;;;;;;;;;;;;;2212487;66;2649;-24
2024/02/17 05:27:08;;;;;;;;;;;;;;;;;;2210525;59;1933;-24
2024/02/17 05:29:40;;;;;;;;;;;;;;;;;;2213360;58;1934;-24
2024/02/17 05:32:11;;;;;;;;;;;;;;;;;;2213952;59;2011;-24
2024/02/17 05:34:41;;;;;;;;;;;;;;;;;;2212825;58;2844;-24
2024/02/17 05:37:14;;;;;;;;;;;;;;;;;;2213929;58;1602;-24
2024/02/17 05:39:50;;;;;;;;;;;;;;;;;;2212685;59;1463;-24
2024/02/17 05:42:20;;;;;;;;;;;;;;;;;;2213046;59;1676;-24
2024/02/17 05:44:51;;;;;;;;;;;;;;;;;;2209823;66;1464;-24
2024/02/17 05:47:21;;;;;;;;;;;;;;;;;;2212425;58;1937;-24
2024/02/17 05:49:51;;;;;;;;;;;;;;;;;;2214159;59;1240;-24
2024/02/17 05:52:24;;;;;;;;;;;;;;;;;;2213551;58;1659;-24
2024/02/17 05:54:55;;;;;;;;;;;;;;;;;;2212345;58;2121;-24
2024/02/17 05:57:26;;;;;;;;;;;;;;;;;;2213865;58;1280;-24
2024/02/17 05:59:56;;;;;;;;;;;;;;;;;;2211858;58;1280;-24
2024/02/17 06:02:27;;;;;;;;;;;;;;;;;;2213519;58;1656;-24
2024/02/17 06:05:03;;;;;;;;;;;;;;;;;;2212472;58;2317;-24
2024/02/17 06:07:33;;;;;;;;;;;;;;;;;;2212975;58;1935;-24
2024/02/17 06:10:04;;;;;;;;;;;;;;;;;;2212323;66;1306;-24
2024/02/17 06:12:35;;;;;;;;;;;;;;;;;;2212204;59;1898;-24
2024/02/17 06:15:05;;;;;;;;;;;;;;;;;;2215764;58;1588;-24
2024/02/17 06:17:42;;;;;;;;;;;;;;;;;;2212033;66;1548;-24
2024/02/17 06:23:03;;;;;;;;;;;;;;;;;;2211735;58;1626;-24
2024/02/17 06:25:35;;;;;;;;;;;;;;;;;;2204968;66;1938;-24
2024/02/17 06:28:05;;;;;;;;;;;;;;;;;;2196078;66;1553;-24
2024/02/17 06:30:39;;;;;;;;;;;;;;;;;;2197384;66;1703;-24
2024/02/17 06:33:10;;;;;;;;;;;;;;;;;;2196777;66;1397;-24
2024/02/17 06:35:40;;;;;;;;;;;;;;;;;;2195840;66;1462;-24
2024/02/17 06:38:14;;;;;;;;;;;;;;;;;;2197430;59;1468;-24
2024/02/17 06:40:44;;;;;;;;;;;;;;;;;;2196604;59;1580;-24
2024/02/17 06:43:17;;;;;;;;;;;;;;;;;;2197499;67;1666;-24
2024/02/17 06:45:48;;;;;;;;;;;;;;;;;;2196463;66;1998;-24
2024/02/17 06:48:26;;;;;;;;;;;;;;;;;;2208948;58;1672;-24
2024/02/17 06:51:02;;;;;;;;;;;;;;;;;;2195973;59;1713;-24
2024/02/17 06:53:33;;;;;;;;;;;;;;;;;;2197087;59;2239;-24
2024/02/17 06:56:04;;;;;;;;;;;;;;;;;;2206721;66;1673;-24
2024/02/17 06:58:35;;;;;;;;;;;;;;;;;;2197321;66;1698;-24
2024/02/17 07:01:05;;;;;;;;;;;;;;;;;;2197557;59;1561;-24
2024/02/17 07:03:37;;;;;;;;;;;;;;;;;;2215004;59;2144;-24
2024/02/17 07:06:07;;;;;;;;;;;;;;;;;;2196324;66;1993;-24
2024/02/17 07:08:43;;;;;;;;;;;;;;;;;;2208556;66;1620;-24
2024/02/17 07:11:17;;;;;;;;;;;;;;;;;;2196764;67;1671;-24
2024/02/17 07:13:50;;;;;;;;;;;;;;;;;;2209893;58;1767;-24
2024/02/17 07:16:20;;;;;;;;;;;;;;;;;;2197411;67;1433;-24
2024/02/17 07:18:50;;;;;;;;;;;;;;;;;;2196027;66;1513;-24
2024/02/17 07:21:21;;;;;;;;;;;;;;;;;;2210057;66;1600;-25
2024/02/17 07:23:53;;;;;;;;;;;;;;;;;;2213293;58;1616;-24
2024/02/17 07:26:23;;;;;;;;;;;;;;;;;;2197323;66;1947;-23
2024/02/17 07:28:54;;;;;;;;;;;;;;;;;;2197076;66;1533;-24
2024/02/17 07:31:29;;;;;;;;;;;;;;;;;;2197075;67;1596;-24
2024/02/17 07:34:01;;;;;;;;;;;;;;;;;;2197019;59;2049;-24
2024/02/17 07:36:32;;;;;;;;;;;;;;;;;;2208228;58;1738;-24
2024/02/17 07:39:06;;;;;;;;;;;;;;;;;;2207929;66;1620;-25
2024/02/17 07:41:37;;;;;;;;;;;;;;;;;;2211159;58;1788;-25
2024/02/17 07:44:11;;;;;;;;;;;;;;;;;;2196179;66;1322;-25
2024/02/17 07:46:42;;;;;;;;;;;;;;;;;;2197025;59;1991;-24
2024/02/17 07:49:12;;;;;;;;;;;;;;;;;;2207837;59;1548;-25
2024/02/17 07:51:45;;;;;;;;;;;;;;;;;;2197309;59;1553;-25
2024/02/17 07:54:15;;;;;;;;;;;;;;;;;;2207074;59;2070;-25
2024/02/17 07:56:46;;;;;;;;;;;;;;;;;;2208526;58;1569;-25
2024/02/17 07:59:17;;;;;;;;;;;;;;;;;;2196968;66;1643;-25
2024/02/17 08:01:47;;;;;;;;;;;;;;;;;;2208549;59;1729;-25
2024/02/17 08:04:18;;;;;;;;;;;;;;;;;;2197127;59;2203;-25
2024/02/17 08:06:53;;;;;;;;;;;;;;;;;;2195316;59;2156;-25
2024/02/17 08:09:23;;;;;;;;;;;;;;;;;;2207443;58;2308;-25
2024/02/17 08:11:54;;;;;;;;;;;;;;;;;;2208183;66;1352;-25
2024/02/17 08:14:24;;;;;;;;;;;;;;;;;;2204646;59;1518;-25
2024/02/17 08:16:55;;;;;;;;;;;;;;;;;;2198087;66;1236;-25
2024/02/17 08:19:25;;;;;;;;;;;;;;;;;;2196914;59;1859;-25
2024/02/17 08:21:55;;;;;;;;;;;;;;;;;;2209504;58;1626;-25
2024/02/17 08:24:27;;;;;;;;;;;;;;;;;;2198507;66;1628;-26
2024/02/17 08:26:57;;;;;;;;;;;;;;;;;;2207468;59;1943;-25
2024/02/17 08:29:28;;;;;;;;;;;;;;;;;;2197327;66;1604;-25
2024/02/17 08:31:58;;;;;;;;;;;;;;;;;;2196465;66;1284;-25
2024/02/17 08:34:28;;;;;;;;;;;;;;;;;;2197398;59;2219;-25
2024/02/17 08:36:59;;;;;;;;;;;;;;;;;;2208570;58;1529;-25
2024/02/17 08:39:29;;;;;;;;;;;;;;;;;;2198186;59;1637;-24
2024/02/17 08:41:59;;;;;;;;;;;;;;;;;;2209042;58;1540;-24
2024/02/17 08:44:30;;;;;;;;;;;;;;;;;;2197339;67;1746;-25
2024/02/17 08:47:00;;;;;;;;;;;;;;;;;;2195684;59;1935;-24
2024/02/17 08:49:30;;;;;;;;;;;;;;;;;;2197445;59;1294;-25
2024/02/17 08:52:01;;;;;;;;;;;;;;;;;;2209267;58;1861;-26
2024/02/17 08:54:32;;;;;;;;;;;;;;;;;;2197582;66;2291;-24
2024/02/17 08:57:02;;;;;;;;;;;;;;;;;;2205171;59;1883;-25
2024/02/17 08:59:33;;;;;;;;;;;;;;;;;;2208607;66;1464;-25
2024/02/17 09:02:03;;;;;;;;;;;;;;;;;;2199849;59;1470;-25
2024/02/17 09:04:34;;;;;;;;;;;;;;;;;;2202950;59;1687;-25
2024/02/17 09:07:05;;;;;;;;;;;;;;;;;;2201114;66;1905;-25
2024/02/17 09:09:38;;;;;;;;;;;;;;;;;;2202687;66;1201;-25
2024/02/17 09:12:08;;;;;;;;;;;;;;;;;;2201967;59;1453;-25
2024/02/17 09:14:38;;;;;;;;;;;;;;;;;;2203934;59;1360;-25
2024/02/17 09:17:08;;;;;;;;;;;;;;;;;;2212557;66;1512;-25
2024/02/17 09:19:39;;;;;;;;;;;;;;;;;;2219381;58;2197;-25
2024/02/17 09:22:12;;;;;;;;;;;;;;;;;;2197590;58;1537;-25
2024/02/17 09:24:42;;;;;;;;;;;;;;;;;;2207167;66;1813;-25
2024/02/17 09:27:15;;;;;;;;;;;;;;;;;;2208385;66;1953;-25
2024/02/17 09:29:47;;;;;;;;;;;;;;;;;;2199062;66;2152;-25
2024/02/17 09:32:19;;;;;;;;;;;;;;;;;;2198542;59;1593;-25
2024/02/17 09:34:49;;;;;;;;;;;;;;;;;;2199799;59;1876;-25
2024/02/17 09:37:20;;;;;;;;;;;;;;;;;;2200163;59;1928;-25
2024/02/17 09:39:51;;;;;;;;;;;;;;;;;;2200379;59;1609;-24
2024/02/17 09:42:21;;;;;;;;;;;;;;;;;;2199916;59;1448;-25
2024/02/17 09:44:52;;;;;;;;;;;;;;;;;;2211901;58;1893;-25
2024/02/17 09:47:22;;;;;;;;;;;;;;;;;;2211376;59;2000;-25
2024/02/17 09:49:53;;;;;;;;;;;;;;;;;;2199189;66;1277;-25
2024/02/17 09:52:28;;;;;;;;;;;;;;;;;;2198639;59;1710;-25
2024/02/17 09:54:59;;;;;;;;;;;;;;;;;;2197721;59;2029;-25
2024/02/17 09:57:29;;;;;;;;;;;;;;;;;;2209653;66;1223;-25
2024/02/17 10:00:06;;;;;;;;;;;;;;;;;;2211120;59;1186;-25
2024/02/17 10:02:37;;;;;;;;;;;;;;;;;;2207724;66;1483;-25
2024/02/17 10:05:08;;;;;;;;;;;;;;;;;;2198470;66;1195;-25
2024/02/17 10:07:49;;;;;;;;;;;;;;;;;;2199429;66;2012;-25
2024/02/17 10:10:20;;;;;;;;;;;;;;;;;;2192285;66;1634;-25
2024/02/17 10:12:52;;;;;;;;;;;;;;;;;;2198731;66;1330;-25
2024/02/17 10:15:24;;;;;;;;;;;;;;;;;;2197571;59;1202;-25
2024/02/17 10:17:55;;;;;;;;;;;;;;;;;;2196605;59;1933;-25
2024/02/17 10:20:25;;;;;;;;;;;;;;;;;;2197666;59;1398;-25
2024/02/17 10:22:55;;;;;;;;;;;;;;;;;;2193331;58;1786;-25
2024/02/17 10:25:26;;;;;;;;;;;;;;;;;;2199595;60;1939;-25
2024/02/17 10:27:56;;;;;;;;;;;;;;;;;;2197918;66;1379;-25
2024/02/17 10:30:27;;;;;;;;;;;;;;;;;;2209729;59;1435;-24
2024/02/17 10:32:57;;;;;;;;;;;;;;;;;;2209513;59;1449;-25
2024/02/17 10:35:35;;;;;;;;;;;;;;;;;;2209989;58;1476;-25
2024/02/17 10:38:07;;;;;;;;;;;;;;;;;;2208252;58;1343;-25
2024/02/17 10:40:41;;;;;;;;;;;;;;;;;;2210236;59;2010;-25
2024/02/17 10:43:13;;;;;;;;;;;;;;;;;;2209056;66;1246;-24
2024/02/17 10:45:48;;;;;;;;;;;;;;;;;;2196960;66;1992;-25
2024/02/17 10:48:20;;;;;;;;;;;;;;;;;;2197313;59;1335;-25
2024/02/17 10:50:53;;;;;;;;;;;;;;;;;;2209379;59;1571;-24
2024/02/17 10:53:30;;;;;;;;;;;;;;;;;;2209545;58;2689;-24
2024/02/17 10:56:04;;;;;;;;;;;;;;;;;;2197587;59;1540;-25
2024/02/17 10:58:36;;;;;;;;;;;;;;;;;;2197671;59;1333;-25
2024/02/17 11:01:10;;;;;;;;;;;;;;;;;;2214890;58;2244;-25
2024/02/17 11:03:44;;;;;;;;;;;;;;;;;;2209603;66;1174;-25
2024/02/17 11:06:16;;;;;;;;;;;;;;;;;;2209182;66;1939;-24
2024/02/17 11:08:47;;;;;;;;;;;;;;;;;;2210100;66;1243;-25
2024/02/17 11:11:26;;;;;;;;;;;;;;;;;;2196977;66;2240;-24
2024/02/17 11:13:58;;;;;;;;;;;;;;;;;;2206206;59;1613;-25
2024/02/17 11:16:35;;;;;;;;;;;;;;;;;;2210145;66;1554;-25
2024/02/17 11:19:10;;;;;;;;;;;;;;;;;;2201284;54;3802;-21
2024/02/17 11:21:40;;;;;;;;;;;;;;;;;;2205105;59;2620;-22
2024/02/17 11:24:22;;;;;;;;;;;;;;;;;;2210861;59;2373;-22
2024/02/17 11:26:53;;;;;;;;;;;;;;;;;;2210614;67;2387;-22
2024/02/17 11:29:34;;;;;;;;;;;;;;;;;;2208550;59;1857;-21
2024/02/17 11:32:05;;;;;;;;;;;;;;;;;;2211867;67;1961;-21
2024/02/17 11:34:36;;;;;;;;;;;;;;;;;;2213976;59;2023;-21
2024/02/17 11:37:08;;;;;;;;;;;;;;;;;;2208580;59;2143;-22
2024/02/17 11:39:42;;;;;;;;;;;;;;;;;;2212502;59;2191;-22
2024/02/17 11:42:15;;;;;;;;;;;;;;;;;;2207973;59;1931;-22
2024/02/17 11:44:46;;;;;;;;;;;;;;;;;;2213387;67;2622;-23
2024/02/17 11:47:16;;;;;;;;;;;;;;;;;;2208310;59;1935;-22
2024/02/17 11:49:49;;;;;;;;;;;;;;;;;;2206975;59;1940;-22
2024/02/17 11:52:22;;;;;;;;;;;;;;;;;;2211058;59;3035;-22
2024/02/17 11:54:53;;;;;;;;;;;;;;;;;;2214368;58;2023;-22
2024/02/17 11:57:26;;;;;;;;;;;;;;;;;;2213932;58;2512;-22
2024/02/17 11:59:56;;;;;;;;;;;;;;;;;;2211357;59;2769;-22
2024/02/17 12:02:27;;;;;;;;;;;;;;;;;;2212058;67;1740;-22
2024/02/17 12:04:59;;;;;;;;;;;;;;;;;;2210580;67;1844;-22
2024/02/17 12:07:30;;;;;;;;;;;;;;;;;;2211819;67;2024;-22
2024/02/17 12:10:00;;;;;;;;;;;;;;;;;;2210722;66;2183;-22
2024/02/17 12:12:32;;;;;;;;;;;;;;;;;;2210466;67;2472;-22
2024/02/17 12:15:02;;;;;;;;;;;;;;;;;;2211745;59;1884;-22
2024/02/17 12:17:33;;;;;;;;;;;;;;;;;;2207602;67;1900;-22
2024/02/17 12:20:07;;;;;;;;;;;;;;;;;;2210183;59;2041;-22
2024/02/17 12:22:38;;;;;;;;;;;;;;;;;;2212000;59;1772;-22
2024/02/17 12:25:08;;;;;;;;;;;;;;;;;;2210897;59;1908;-21
2024/02/17 12:27:42;;;;;;;;;;;;;;;;;;2212271;67;2541;-22
2024/02/17 12:30:13;;;;;;;;;;;;;;;;;;2211526;67;2048;-22
2024/02/17 12:32:47;;;;;;;;;;;;;;;;;;2212111;59;2406;-21
2024/02/17 12:35:18;;;;;;;;;;;;;;;;;;2211063;59;2320;-22
2024/02/17 12:37:49;;;;;;;;;;;;;;;;;;2209518;67;1798;-23
2024/02/17 12:40:27;;;;;;;;;;;;;;;;;;2211590;67;2819;-22
2024/02/17 12:42:58;;;;;;;;;;;;;;;;;;2212311;59;1893;-22
2024/02/17 12:45:32;;;;;;;;;;;;;;;;;;2211303;59;2752;-22
2024/02/17 12:48:03;;;;;;;;;;;;;;;;;;2211407;59;1936;-22
2024/02/17 12:50:35;;;;;;;;;;;;;;;;;;2212013;59;1878;-22
2024/02/17 12:53:11;;;;;;;;;;;;;;;;;;2212287;67;2452;-21
2024/02/17 12:55:43;;;;;;;;;;;;;;;;;;2210655;59;2059;-22
2024/02/17 12:58:13;;;;;;;;;;;;;;;;;;2209373;67;1834;-22
2024/02/17 13:00:44;;;;;;;;;;;;;;;;;;2209704;67;1805;-22
2024/02/17 13:03:17;;;;;;;;;;;;;;;;;;2211945;66;2914;-21
2024/02/17 13:05:49;;;;;;;;;;;;;;;;;;2212231;60;2472;-22
2024/02/17 13:08:22;;;;;;;;;;;;;;;;;;2207903;66;1904;-21
2024/02/17 13:10:54;;;;;;;;;;;;;;;;;;2212961;67;1946;-22
2024/02/17 13:13:26;;;;;;;;;;;;;;;;;;2212356;66;2945;-22
2024/02/17 13:15:57;;;;;;;;;;;;;;;;;;2212335;59;1856;-21
2024/02/17 13:18:27;;;;;;;;;;;;;;;;;;2211425;66;3285;-22
2024/02/17 13:21:00;;;;;;;;;;;;;;;;;;2212352;59;2506;-22
2024/02/17 13:23:30;;;;;;;;;;;;;;;;;;2205044;67;2076;-22
2024/02/17 13:26:01;;;;;;;;;;;;;;;;;;2211589;66;1922;-22
2024/02/17 13:28:31;;;;;;;;;;;;;;;;;;2208910;66;1963;-23
2024/02/17 13:31:03;;;;;;;;;;;;;;;;;;2212456;67;1997;-22
2024/02/17 13:33:35;;;;;;;;;;;;;;;;;;2207786;59;1924;-22
2024/02/17 13:36:06;;;;;;;;;;;;;;;;;;2212139;59;1771;-21
2024/02/17 13:38:40;;;;;;;;;;;;;;;;;;2208547;59;2013;-22
2024/02/17 13:41:13;;;;;;;;;;;;;;;;;;2212220;59;2651;-21
2024/02/17 13:43:44;;;;;;;;;;;;;;;;;;2212899;66;1797;-21
2024/02/17 13:46:14;;;;;;;;;;;;;;;;;;2211717;67;1902;-21
2024/02/17 13:48:55;;;;;;;;;;;;;;;;;;2212126;59;2422;-21
2024/02/17 13:51:28;;;;;;;;;;;;;;;;;;2210226;59;1908;-21
2024/02/17 13:54:09;;;;;;;;;;;;;;;;;;2207637;59;1995;-22
2024/02/17 13:56:39;;;;;;;;;;;;;;;;;;2206714;59;2440;-21
2024/02/17 13:59:10;;;;;;;;;;;;;;;;;;2206136;59;2889;-21
2024/02/17 14:01:40;;;;;;;;;;;;;;;;;;2208634;58;2526;-21
2024/02/17 14:04:10;;;;;;;;;;;;;;;;;;2201893;59;3191;-22
2024/02/17 14:06:41;;;;;;;;;;;;;;;;;;2202689;59;2213;-22
2024/02/17 14:09:11;;;;;;;;;;;;;;;;;;2205488;66;1850;-21
2024/02/17 14:11:43;;;;;;;;;;;;;;;;;;2149328;59;3402;-21
2024/02/17 14:14:16;;;;;;;;;;;;;;;;;;2185593;59;2754;-21
2024/02/17 14:16:47;;;;;;;;;;;;;;;;;;2207470;59;2985;-21
2024/02/17 14:19:19;;;;;;;;;;;;;;;;;;2203789;59;2718;-21
2024/02/17 14:21:50;;;;;;;;;;;;;;;;;;2203179;59;2109;-21
2024/02/17 14:24:21;;;;;;;;;;;;;;;;;;2202929;59;3309;-21
2024/02/17 14:26:51;;;;;;;;;;;;;;;;;;2208799;59;1942;-22
2024/02/17 14:29:21;;;;;;;;;;;;;;;;;;2209704;67;1930;-21
2024/02/17 14:31:53;;;;;;;;;;;;;;;;;;2208031;59;2196;-21
2024/02/17 14:34:23;;;;;;;;;;;;;;;;;;2207275;59;2664;-22
2024/02/17 14:36:57;;;;;;;;;;;;;;;;;;2207982;59;3319;-22
2024/02/17 14:39:29;;;;;;;;;;;;;;;;;;2208442;59;2663;-21
2024/02/17 14:42:00;;;;;;;;;;;;;;;;;;2212810;58;2473;-21
2024/02/17 14:44:30;;;;;;;;;;;;;;;;;;2210189;67;2591;-21
2024/02/17 14:47:02;;;;;;;;;;;;;;;;;;2210566;59;2516;-21
2024/02/17 14:49:34;;;;;;;;;;;;;;;;;;2209227;59;3565;-21
2024/02/17 14:52:04;;;;;;;;;;;;;;;;;;2210948;59;2678;-28
2024/02/17 14:54:36;;;;;;;;;;;;;;;;;;2209930;59;2319;-21
2024/02/17 14:57:07;;;;;;;;;;;;;;;;;;2211053;59;1909;-21
2024/02/17 14:59:38;;;;;;;;;;;;;;;;;;2210142;59;2040;-21
2024/02/17 15:02:09;;;;;;;;;;;;;;;;;;2210911;59;3051;-22
2024/02/17 15:04:39;;;;;;;;;;;;;;;;;;2210770;67;2372;-21
2024/02/17 15:07:09;;;;;;;;;;;;;;;;;;2211713;66;2988;-21
2024/02/17 15:09:41;;;;;;;;;;;;;;;;;;2207272;59;1912;-21
2024/02/17 15:12:11;;;;;;;;;;;;;;;;;;2210492;59;2082;-21
2024/02/17 15:14:42;;;;;;;;;;;;;;;;;;2210319;59;2060;-21
2024/02/17 15:17:12;;;;;;;;;;;;;;;;;;2207633;67;1852;-21
2024/02/17 15:19:44;;;;;;;;;;;;;;;;;;2208189;59;2206;-21
2024/02/17 15:22:17;;;;;;;;;;;;;;;;;;2211266;59;1783;-21
2024/02/17 15:24:47;;;;;;;;;;;;;;;;;;2208675;59;2630;-21
2024/02/17 15:27:23;;;;;;;;;;;;;;;;;;2206985;59;2094;-22
2024/02/17 15:29:54;;;;;;;;;;;;;;;;;;2211518;59;2850;-21
2024/02/17 15:32:25;;;;;;;;;;;;;;;;;;2207274;66;2993;-21
2024/02/17 15:34:56;;;;;;;;;;;;;;;;;;2209179;59;2148;-21
2024/02/17 15:37:26;;;;;;;;;;;;;;;;;;2211205;67;2433;-22
2024/02/17 15:39:59;;;;;;;;;;;;;;;;;;2211749;67;1921;-22
2024/02/17 15:42:30;;;;;;;;;;;;;;;;;;2209932;59;2676;-21
2024/02/17 15:45:00;;;;;;;;;;;;;;;;;;2211939;59;1648;-21
2024/02/17 15:47:30;;;;;;;;;;;;;;;;;;2207378;59;2348;-22
2024/02/17 15:50:01;;;;;;;;;;;;;;;;;;2207474;59;2267;-21
2024/02/17 15:52:31;;;;;;;;;;;;;;;;;;2210210;59;2320;-22
2024/02/17 15:55:02;;;;;;;;;;;;;;;;;;2211831;66;1957;-21
2024/02/17 15:57:34;;;;;;;;;;;;;;;;;;2210920;59;2031;-21
2024/02/17 16:00:21;;;;;;;;;;;;;;;;;;2212646;59;1840;-21
2024/02/17 16:02:52;;;;;;;;;;;;;;;;;;2212002;59;3449;-22
2024/02/17 16:05:23;;;;;;;;;;;;;;;;;;2206963;67;2041;-22
2024/02/17 16:07:59;;;;;;;;;;;;;;;;;;2212486;59;2713;-21
2024/02/17 16:10:31;;;;;;;;;;;;;;;;;;2210792;66;2324;-22
2024/02/17 16:13:01;;;;;;;;;;;;;;;;;;2209377;59;2195;-22
2024/02/17 16:15:34;;;;;;;;;;;;;;;;;;2210819;66;1807;-21
2024/02/17 16:18:06;;;;;;;;;;;;;;;;;;2208804;67;1875;-21
2024/02/17 16:20:40;;;;;;;;;;;;;;;;;;2210314;59;1805;-21
2024/02/17 16:23:11;;;;;;;;;;;;;;;;;;2211724;66;2554;-21
2024/02/17 16:25:41;;;;;;;;;;;;;;;;;;2210387;66;2542;-21
2024/02/17 16:28:12;;;;;;;;;;;;;;;;;;2207907;67;2619;-21
2024/02/17 16:30:43;;;;;;;;;;;;;;;;;;2211068;66;2044;-21
2024/02/17 16:33:14;;;;;;;;;;;;;;;;;;2212185;66;2569;-22
2024/02/17 16:35:44;;;;;;;;;;;;;;;;;;2207253;59;1978;-22
2024/02/17 16:38:14;;;;;;;;;;;;;;;;;;2209524;59;1820;-21
2024/02/17 16:40:45;;;;;;;;;;;;;;;;;;2206125;59;1971;-21
2024/02/17 16:43:16;;;;;;;;;;;;;;;;;;2203449;66;2150;-21
2024/02/17 16:45:46;;;;;;;;;;;;;;;;;;2207407;59;2635;-21
2024/02/17 16:48:16;;;;;;;;;;;;;;;;;;2208683;59;2385;-21
2024/02/17 16:50:48;;;;;;;;;;;;;;;;;;2206718;63;2522;-21
2024/02/17 16:53:19;;;;;;;;;;;;;;;;;;2209656;59;2122;-21
2024/02/17 16:55:49;;;;;;;;;;;;;;;;;;2210989;59;1822;-21
2024/02/17 16:58:19;;;;;;;;;;;;;;;;;;2212255;66;1971;-22
2024/02/17 17:00:53;;;;;;;;;;;;;;;;;;2212347;59;1983;-21
2024/02/17 17:03:26;;;;;;;;;;;;;;;;;;2211408;66;2615;-21
2024/02/17 17:05:57;;;;;;;;;;;;;;;;;;2212735;67;2007;-21
2024/02/17 17:08:27;;;;;;;;;;;;;;;;;;2208170;59;1928;-21
2024/02/17 17:11:00;;;;;;;;;;;;;;;;;;2205015;67;1824;-21
2024/02/17 17:13:31;;;;;;;;;;;;;;;;;;2212460;59;2667;-21
2024/02/17 17:16:03;;;;;;;;;;;;;;;;;;2213977;59;3214;-21
2024/02/17 17:18:35;;;;;;;;;;;;;;;;;;2210900;59;1997;-21
2024/02/17 17:21:05;;;;;;;;;;;;;;;;;;2212025;59;1681;-21
2024/02/17 17:23:36;;;;;;;;;;;;;;;;;;2212169;67;2612;-21
2024/02/17 17:26:06;;;;;;;;;;;;;;;;;;2208503;53;2659;-24
2024/02/17 17:28:38;;;;;;;;;;;;;;;;;;2204200;59;2710;-24
2024/02/17 17:31:16;;;;;;;;;;;;;;;;;;2201649;59;2138;-26
2024/02/17 17:33:47;;;;;;;;;;;;;;;;;;2201282;59;2636;-26
2024/02/17 17:36:17;;;;;;;;;;;;;;;;;;2207862;59;1982;-26